Airfield :







YOU CAN JOIN US ON...

 
LOGIN :

Register | Disclaimer

   EN    FR    IT 

 









Legend :    VFR   Marginal VFR   IFR   Intensive IFR   Very Intensive IFR
Visi :
Ceiling :
>= 8 km
>= 3000ft
5 to 8 km
1000 to 3000 ft
1500m to 5 km
500 to 1000 ft
800 to 1500m
200 to 500 ft
< 800m
< 200 ft
Symbols :   Thunderstorms  Fog  Heavy snow  Heavy precipitations  Wind > 20 kt






- Airport Elevation : 477 ft
- IATA code : YHZ


CYHZ - Halifax Stanfield Int.

CURRENT METAR :
  • 220118Z 19009G17KT 2SM BR OVC003 18/18 A2983 RMK ST8 SLP102 DENSITY ALT 1100FT

EXPIRED METARs :
  • 220100Z 19012G18KT 1 1/2SM BR OVC003 18/18 A2983 RMK ST8 SLP103 DENSITY ALT 1100FT
  • 220031Z 20009G16KT 1 1/2SM BR OVC003 18/17 A2983 RMK ST8 SLP101 DENSITY ALT 1000FT
  • 220012Z 19011G21KT 1SM R23/P6000FT/N R14/P6000FT/U BR OVC002 17/17 A2982 RMK ST8 SLP100 DENSITY ALT 1000FT
  • 212347Z 21017G23KT 2SM BR BKN003 18/17 A2982 RMK SF7 SLP100 DENSITY ALT 1100FT
  • 212334Z 19016G22KT 15SM FEW003 SCT250 20/17 A2982 RMK SF2CI1 SLP098 DENSITY ALT 1300FT
  • 212300Z 20012G20KT 15SM FEW250 21/17 A2980 RMK CI2 SLP092 DENSITY ALT 1500FT

TAF AMD TAF CYHZ
Valid from the 22 at 00:00 until the 23 at 00:00 UTC


212353Z 2200/2224 21012G22KT 1SM -RA BR OVC003
TEMPO 2200/2206 P6SM NSW OVC004
FM220600 19012G22KT 2SM -RA BR OVC003
FM221700 19012G22KT P6SM SCT008 BKN012 OVC100
FM222100 19012G22KT P6SM OVC008 RMK NXT FCST BY 220300Z
CZQM FIR / North America



MET'MAP, your aeronautical weather chart ! - Copyright ORBIFLY December 2007 - Disclaimer

ORBIFLY MET'MAP TEAM :

Programming & Development : Alexandra Zaïnal
Concept & original design : Baudouin d'Aumeries
Assistance for programming : Marc-Olivier Méhu
Technical & hardware support : Manuel Goepfert

Contact : metmap@orbifly.com




SOURCES & CREDITS :

   NOAA